Edwards Air Force Base

Airport
ICAO code: 
KEDW
Summary
ICAO Region: 
NAM
Territory: 
Location: 
Edwards, California,
Elevation: 
2312 ft
Coordinates: 
Aerial View: 
34° 54' 19.806" N, 117° 53' 4.209" W
Metar
Observation
KEDW 040658Z AUTO 00000KT 10SM CLR 05/M09 A3010 RMK AO2 SLP193 T00471091
Station
Edwards Air Force Base
Date/Time
2021-12-04 06:58:00
Wind direction
Wind speed
00 kts
Lowest cloud amount
n/a
Temperature
4.7°C
Dew point
-9.1°C
Humidity
35%
Weather condition
n/a

Description

Edwards Air Force Base is a United States Air Force base located on the border of Kern County, Los Angeles County, and San Bernardino County, California, in the Antelope Valley. It is 6 nautical miles southwest of the central business district of North Edwards, California and 11 km due east of Rosamond.

Runways

Designator Length Width Surface Rops
6/24 2438 15 CON Yes/Yes
04L/22R 3658 61 ASPH Yes/Yes
04R/22L 4579 91 CONC Yes/Yes
Airport map: 
Aerial View: 

SKYbrary Partners:

Safety knowledge contributed by: